sensor_id;sensor_type;location;lat;lon;timestamp;P1;durP1;ratioP1;P2;durP2;ratioP2
49372;SDS011;44113;38.408;-122.974;2022-11-20T00:01:27;2.35;;;1.00;;
49372;SDS011;44113;38.408;-122.974;2022-11-20T00:03:54;4.18;;;2.13;;
49372;SDS011;44113;38.408;-122.974;2022-11-20T00:06:23;4.75;;;1.83;;
49372;SDS011;44113;38.408;-122.974;2022-11-20T00:08:51;3.03;;;1.55;;
49372;SDS011;44113;38.408;-122.974;2022-11-20T00:11:20;4.75;;;1.63;;
49372;SDS011;44113;38.408;-122.974;2022-11-20T00:13:53;2.90;;;1.10;;
49372;SDS011;44113;38.408;-122.974;2022-11-20T00:16:22;5.85;;;1.50;;
49372;SDS011;44113;38.408;-122.974;2022-11-20T00:18:50;2.75;;;1.20;;
49372;SDS011;44113;38.408;-122.974;2022-11-20T00:21:27;3.05;;;1.63;;
49372;SDS011;44113;38.408;-122.974;2022-11-20T00:23:55;2.25;;;1.17;;
49372;SDS011;44113;38.408;-122.974;2022-11-20T00:26:24;2.70;;;1.40;;
49372;SDS011;44113;38.408;-122.974;2022-11-20T00:28:54;2.70;;;1.33;;
49372;SDS011;44113;38.408;-122.974;2022-11-20T00:31:25;2.20;;;1.17;;
49372;SDS011;44113;38.408;-122.974;2022-11-20T00:33:52;2.22;;;1.15;;
49372;SDS011;44113;38.408;-122.974;2022-11-20T00:36:20;1.83;;;0.63;;
49372;SDS011;44113;38.408;-122.974;2022-11-20T00:38:52;2.15;;;0.95;;
49372;SDS011;44113;38.408;-122.974;2022-11-20T00:41:22;1.70;;;0.85;;
49372;SDS011;44113;38.408;-122.974;2022-11-20T00:43:53;3.28;;;0.82;;
49372;SDS011;44113;38.408;-122.974;2022-11-20T00:46:21;1.55;;;0.73;;
49372;SDS011;44113;38.408;-122.974;2022-11-20T00:48:50;1.73;;;1.02;;
49372;SDS011;44113;38.408;-122.974;2022-11-20T00:51:17;2.00;;;0.98;;
49372;SDS011;44113;38.408;-122.974;2022-11-20T00:53:46;5.00;;;1.13;;
49372;SDS011;44113;38.408;-122.974;2022-11-20T00:56:14;3.80;;;1.35;;
49372;SDS011;44113;38.408;-122.974;2022-11-20T00:58:43;1.80;;;0.80;;
49372;SDS011;44113;38.408;-122.974;2022-11-20T01:01:11;1.42;;;0.70;;
49372;SDS011;44113;38.408;-122.974;2022-11-20T01:03:41;1.77;;;0.63;;
49372;SDS011;44113;38.408;-122.974;2022-11-20T01:06:10;1.70;;;0.95;;
49372;SDS011;44113;38.408;-122.974;2022-11-20T01:08:41;2.40;;;0.70;;
49372;SDS011;44113;38.408;-122.974;2022-11-20T01:11:13;1.80;;;0.98;;
49372;SDS011;44113;38.408;-122.974;2022-11-20T01:13:41;1.65;;;0.60;;
49372;SDS011;44113;38.408;-122.974;2022-11-20T01:16:15;1.92;;;0.85;;
49372;SDS011;44113;38.408;-122.974;2022-11-20T01:18:44;1.70;;;0.95;;
49372;SDS011;44113;38.408;-122.974;2022-11-20T01:21:14;2.30;;;0.82;;
49372;SDS011;44113;38.408;-122.974;2022-11-20T01:23:43;1.80;;;0.73;;
49372;SDS011;44113;38.408;-122.974;2022-11-20T01:26:18;1.58;;;0.95;;
49372;SDS011;44113;38.408;-122.974;2022-11-20T01:28:46;1.60;;;0.75;;
49372;SDS011;44113;38.408;-122.974;2022-11-20T01:33:48;1.35;;;0.60;;
49372;SDS011;44113;38.408;-122.974;2022-11-20T01:36:16;2.30;;;0.73;;
49372;SDS011;44113;38.408;-122.974;2022-11-20T01:38:45;1.00;;;0.50;;
49372;SDS011;44113;38.408;-122.974;2022-11-20T01:41:13;1.95;;;0.73;;
49372;SDS011;44113;38.408;-122.974;2022-11-20T01:44:01;2.63;;;0.95;;
49372;SDS011;44113;38.408;-122.974;2022-11-20T01:46:28;1.73;;;0.65;;
49372;SDS011;44113;38.408;-122.974;2022-11-20T01:48:59;1.20;;;0.47;;
49372;SDS011;44113;38.408;-122.974;2022-11-20T01:54:13;1.73;;;0.65;;
49372;SDS011;44113;38.408;-122.974;2022-11-20T01:56:47;1.42;;;0.60;;
49372;SDS011;44113;38.408;-122.974;2022-11-20T01:59:16;2.53;;;1.35;;
49372;SDS011;44113;38.408;-122.974;2022-11-20T02:01:44;2.55;;;0.50;;
49372;SDS011;44113;38.408;-122.974;2022-11-20T02:04:12;2.63;;;0.50;;
49372;SDS011;44113;38.408;-122.974;2022-11-20T02:06:42;2.20;;;0.40;;
49372;SDS011;44113;38.408;-122.974;2022-11-20T02:09:13;1.40;;;0.70;;
49372;SDS011;44113;38.408;-122.974;2022-11-20T02:11:40;1.13;;;0.50;;
49372;SDS011;44113;38.408;-122.974;2022-11-20T02:14:07;2.10;;;0.60;;
49372;SDS011;44113;38.408;-122.974;2022-11-20T02:16:39;5.78;;;0.77;;
49372;SDS011;44113;38.408;-122.974;2022-11-20T02:19:13;3.35;;;0.50;;
49372;SDS011;44113;38.408;-122.974;2022-11-20T02:21:46;3.03;;;0.75;;
49372;SDS011;44113;38.408;-122.974;2022-11-20T02:24:33;2.63;;;0.70;;
49372;SDS011;44113;38.408;-122.974;2022-11-20T02:27:04;4.50;;;0.77;;
49372;SDS011;44113;38.408;-122.974;2022-11-20T02:29:37;2.58;;;0.40;;
49372;SDS011;44113;38.408;-122.974;2022-11-20T02:32:19;4.78;;;0.40;;
49372;SDS011;44113;38.408;-122.974;2022-11-20T02:34:52;2.28;;;0.50;;
49372;SDS011;44113;38.408;-122.974;2022-11-20T02:37:20;1.25;;;0.47;;
49372;SDS011;44113;38.408;-122.974;2022-11-20T02:39:47;3.17;;;0.80;;
49372;SDS011;44113;38.408;-122.974;2022-11-20T02:42:17;1.60;;;0.40;;
49372;SDS011;44113;38.408;-122.974;2022-11-20T02:44:45;4.78;;;0.50;;
49372;SDS011;44113;38.408;-122.974;2022-11-20T02:47:11;2.20;;;0.80;;
49372;SDS011;44113;38.408;-122.974;2022-11-20T02:49:38;3.78;;;0.50;;
49372;SDS011;44113;38.408;-122.974;2022-11-20T02:52:04;3.10;;;0.50;;
49372;SDS011;44113;38.408;-122.974;2022-11-20T02:54:30;1.92;;;0.52;;
49372;SDS011;44113;38.408;-122.974;2022-11-20T02:56:57;1.10;;;0.30;;
49372;SDS011;44113;38.408;-122.974;2022-11-20T02:59:23;2.58;;;0.93;;
49372;SDS011;44113;38.408;-122.974;2022-11-20T03:01:50;4.20;;;0.40;;
49372;SDS011;44113;38.408;-122.974;2022-11-20T03:04:16;2.10;;;0.50;;
49372;SDS011;44113;38.408;-122.974;2022-11-20T03:06:43;3.22;;;0.40;;
49372;SDS011;44113;38.408;-122.974;2022-11-20T03:09:09;0.68;;;0.30;;
49372;SDS011;44113;38.408;-122.974;2022-11-20T03:11:35;2.78;;;0.40;;
49372;SDS011;44113;38.408;-122.974;2022-11-20T03:14:03;0.90;;;0.32;;
49372;SDS011;44113;38.408;-122.974;2022-11-20T03:16:30;1.85;;;0.32;;
49372;SDS011;44113;38.408;-122.974;2022-11-20T03:18:58;2.05;;;0.40;;
49372;SDS011;44113;38.408;-122.974;2022-11-20T03:21:24;2.13;;;0.30;;
49372;SDS011;44113;38.408;-122.974;2022-11-20T03:23:52;9.45;;;0.45;;
49372;SDS011;44113;38.408;-122.974;2022-11-20T03:26:22;11.77;;;0.50;;
49372;SDS011;44113;38.408;-122.974;2022-11-20T03:31:22;0.85;;;0.30;;
49372;SDS011;44113;38.408;-122.974;2022-11-20T03:33:53;11.82;;;1.77;;
49372;SDS011;44113;38.408;-122.974;2022-11-20T03:36:21;13.25;;;1.20;;
49372;SDS011;44113;38.408;-122.974;2022-11-20T03:38:48;6.10;;;0.40;;
49372;SDS011;44113;38.408;-122.974;2022-11-20T03:41:26;3.42;;;0.40;;
49372;SDS011;44113;38.408;-122.974;2022-11-20T03:43:54;4.35;;;0.60;;
49372;SDS011;44113;38.408;-122.974;2022-11-20T03:46:22;3.40;;;0.38;;
49372;SDS011;44113;38.408;-122.974;2022-11-20T03:48:50;4.32;;;0.50;;
49372;SDS011;44113;38.408;-122.974;2022-11-20T03:51:17;14.85;;;0.90;;
49372;SDS011;44113;38.408;-122.974;2022-11-20T03:53:55;1.55;;;0.30;;
49372;SDS011;44113;38.408;-122.974;2022-11-20T03:56:26;5.93;;;0.68;;
49372;SDS011;44113;38.408;-122.974;2022-11-20T03:58:54;8.07;;;2.25;;
49372;SDS011;44113;38.408;-122.974;2022-11-20T04:01:22;5.47;;;0.40;;
49372;SDS011;44113;38.408;-122.974;2022-11-20T04:03:53;2.78;;;0.40;;
49372;SDS011;44113;38.408;-122.974;2022-11-20T04:06:22;6.03;;;0.40;;
49372;SDS011;44113;38.408;-122.974;2022-11-20T04:08:50;1.02;;;0.30;;
49372;SDS011;44113;38.408;-122.974;2022-11-20T04:11:18;2.20;;;0.40;;
49372;SDS011;44113;38.408;-122.974;2022-11-20T04:13:47;5.65;;;0.40;;
49372;SDS011;44113;38.408;-122.974;2022-11-20T04:16:15;6.47;;;0.43;;
49372;SDS011;44113;38.408;-122.974;2022-11-20T04:18:42;3.88;;;0.57;;
49372;SDS011;44113;38.408;-122.974;2022-11-20T04:21:09;3.03;;;0.30;;
49372;SDS011;44113;38.408;-122.974;2022-11-20T04:23:36;1.27;;;0.30;;
49372;SDS011;44113;38.408;-122.974;2022-11-20T04:26:04;8.48;;;0.32;;
49372;SDS011;44113;38.408;-122.974;2022-11-20T04:28:34;1.85;;;0.30;;
49372;SDS011;44113;38.408;-122.974;2022-11-20T04:31:05;1.90;;;0.30;;
49372;SDS011;44113;38.408;-122.974;2022-11-20T04:33:37;2.10;;;0.20;;
49372;SDS011;44113;38.408;-122.974;2022-11-20T04:36:06;1.88;;;0.38;;
49372;SDS011;44113;38.408;-122.974;2022-11-20T04:38:40;1.23;;;0.20;;
49372;SDS011;44113;38.408;-122.974;2022-11-20T04:41:08;1.02;;;0.30;;
49372;SDS011;44113;38.408;-122.974;2022-11-20T04:43:41;0.90;;;0.30;;
49372;SDS011;44113;38.408;-122.974;2022-11-20T04:46:11;1.95;;;0.28;;
49372;SDS011;44113;38.408;-122.974;2022-11-20T04:48:38;1.42;;;0.20;;
49372;SDS011;44113;38.408;-122.974;2022-11-20T04:51:05;2.45;;;0.35;;
49372;SDS011;44113;38.408;-122.974;2022-11-20T04:53:32;0.70;;;0.20;;
49372;SDS011;44113;38.408;-122.974;2022-11-20T04:56:06;4.20;;;0.20;;
49372;SDS011;44113;38.408;-122.974;2022-11-20T04:58:35;1.42;;;0.20;;
49372;SDS011;44113;38.408;-122.974;2022-11-20T05:01:09;2.25;;;0.20;;
49372;SDS011;44113;38.408;-122.974;2022-11-20T05:03:38;0.65;;;0.20;;
49372;SDS011;44113;38.408;-122.974;2022-11-20T05:06:06;3.50;;;0.52;;
49372;SDS011;44113;38.408;-122.974;2022-11-20T05:08:33;2.90;;;0.38;;
49372;SDS011;44113;38.408;-122.974;2022-11-20T05:11:01;11.43;;;0.98;;
49372;SDS011;44113;38.408;-122.974;2022-11-20T05:13:29;7.57;;;0.40;;
49372;SDS011;44113;38.408;-122.974;2022-11-20T05:16:06;7.88;;;1.38;;
49372;SDS011;44113;38.408;-122.974;2022-11-20T05:18:37;5.70;;;0.85;;
49372;SDS011;44113;38.408;-122.974;2022-11-20T05:21:05;13.57;;;0.98;;
49372;SDS011;44113;38.408;-122.974;2022-11-20T05:23:32;9.75;;;0.60;;
49372;SDS011;44113;38.408;-122.974;2022-11-20T05:26:00;7.63;;;0.80;;
49372;SDS011;44113;38.408;-122.974;2022-11-20T05:28:28;10.05;;;0.60;;
49372;SDS011;44113;38.408;-122.974;2022-11-20T05:30:56;5.43;;;1.30;;
49372;SDS011;44113;38.408;-122.974;2022-11-20T05:33:29;6.32;;;3.20;;
49372;SDS011;44113;38.408;-122.974;2022-11-20T05:35:58;13.60;;;3.63;;
49372;SDS011;44113;38.408;-122.974;2022-11-20T05:38:25;9.85;;;2.53;;
49372;SDS011;44113;38.408;-122.974;2022-11-20T05:40:51;12.00;;;3.53;;
49372;SDS011;44113;38.408;-122.974;2022-11-20T05:43:18;11.38;;;3.20;;
49372;SDS011;44113;38.408;-122.974;2022-11-20T05:45:52;8.48;;;2.00;;
49372;SDS011;44113;38.408;-122.974;2022-11-20T05:48:19;10.10;;;2.75;;
49372;SDS011;44113;38.408;-122.974;2022-11-20T05:50:47;6.43;;;1.88;;
49372;SDS011;44113;38.408;-122.974;2022-11-20T05:53:13;6.63;;;2.08;;
49372;SDS011;44113;38.408;-122.974;2022-11-20T05:55:40;7.90;;;1.75;;
49372;SDS011;44113;38.408;-122.974;2022-11-20T05:58:06;6.70;;;1.83;;
49372;SDS011;44113;38.408;-122.974;2022-11-20T06:00:34;8.70;;;1.75;;
49372;SDS011;44113;38.408;-122.974;2022-11-20T06:03:02;3.35;;;1.45;;
49372;SDS011;44113;38.408;-122.974;2022-11-20T06:05:29;3.83;;;1.10;;
49372;SDS011;44113;38.408;-122.974;2022-11-20T06:07:56;3.15;;;1.20;;
49372;SDS011;44113;38.408;-122.974;2022-11-20T06:10:22;6.07;;;1.42;;
49372;SDS011;44113;38.408;-122.974;2022-11-20T06:12:49;4.43;;;1.70;;
49372;SDS011;44113;38.408;-122.974;2022-11-20T06:15:15;4.95;;;1.58;;
49372;SDS011;44113;38.408;-122.974;2022-11-20T06:17:42;2.88;;;0.82;;
49372;SDS011;44113;38.408;-122.974;2022-11-20T06:20:09;5.10;;;1.75;;
49372;SDS011;44113;38.408;-122.974;2022-11-20T06:22:36;3.17;;;0.65;;
49372;SDS011;44113;38.408;-122.974;2022-11-20T06:25:02;3.33;;;1.08;;
49372;SDS011;44113;38.408;-122.974;2022-11-20T06:27:29;6.53;;;0.80;;
49372;SDS011;44113;38.408;-122.974;2022-11-20T06:29:56;3.35;;;0.70;;
49372;SDS011;44113;38.408;-122.974;2022-11-20T06:32:23;2.83;;;0.60;;
49372;SDS011;44113;38.408;-122.974;2022-11-20T06:34:49;1.98;;;0.60;;
49372;SDS011;44113;38.408;-122.974;2022-11-20T06:37:16;2.70;;;0.63;;
49372;SDS011;44113;38.408;-122.974;2022-11-20T06:39:43;2.08;;;0.80;;
49372;SDS011;44113;38.408;-122.974;2022-11-20T06:42:10;2.38;;;1.05;;
49372;SDS011;44113;38.408;-122.974;2022-11-20T06:44:37;3.15;;;0.80;;
49372;SDS011;44113;38.408;-122.974;2022-11-20T06:47:04;2.80;;;0.60;;
49372;SDS011;44113;38.408;-122.974;2022-11-20T06:49:30;1.80;;;0.50;;
49372;SDS011;44113;38.408;-122.974;2022-11-20T06:51:59;6.32;;;1.23;;
49372;SDS011;44113;38.408;-122.974;2022-11-20T06:54:25;3.13;;;0.60;;
49372;SDS011;44113;38.408;-122.974;2022-11-20T06:56:52;6.88;;;0.50;;
49372;SDS011;44113;38.408;-122.974;2022-11-20T06:59:18;2.42;;;0.47;;
49372;SDS011;44113;38.408;-122.974;2022-11-20T07:01:45;1.85;;;0.60;;
49372;SDS011;44113;38.408;-122.974;2022-11-20T07:04:11;4.78;;;0.50;;
49372;SDS011;44113;38.408;-122.974;2022-11-20T07:06:38;5.18;;;0.65;;
49372;SDS011;44113;38.408;-122.974;2022-11-20T07:09:04;1.50;;;0.50;;
49372;SDS011;44113;38.408;-122.974;2022-11-20T07:11:32;2.35;;;0.50;;
49372;SDS011;44113;38.408;-122.974;2022-11-20T07:13:58;2.55;;;0.50;;
49372;SDS011;44113;38.408;-122.974;2022-11-20T07:16:25;1.40;;;0.50;;
49372;SDS011;44113;38.408;-122.974;2022-11-20T07:18:53;1.17;;;0.40;;
49372;SDS011;44113;38.408;-122.974;2022-11-20T07:21:20;1.10;;;0.40;;
49372;SDS011;44113;38.408;-122.974;2022-11-20T07:23:47;2.28;;;0.35;;
49372;SDS011;44113;38.408;-122.974;2022-11-20T07:26:13;1.40;;;0.30;;
49372;SDS011;44113;38.408;-122.974;2022-11-20T07:28:40;1.42;;;0.32;;
49372;SDS011;44113;38.408;-122.974;2022-11-20T07:31:09;0.93;;;0.38;;
49372;SDS011;44113;38.408;-122.974;2022-11-20T07:33:37;2.65;;;0.30;;
49372;SDS011;44113;38.408;-122.974;2022-11-20T07:36:04;0.80;;;0.30;;
49372;SDS011;44113;38.408;-122.974;2022-11-20T07:38:30;2.78;;;0.38;;
49372;SDS011;44113;38.408;-122.974;2022-11-20T07:40:57;6.07;;;0.43;;
49372;SDS011;44113;38.408;-122.974;2022-11-20T07:43:26;1.13;;;0.30;;
49372;SDS011;44113;38.408;-122.974;2022-11-20T07:45:56;1.52;;;0.57;;
49372;SDS011;44113;38.408;-122.974;2022-11-20T07:48:24;1.20;;;0.30;;
49372;SDS011;44113;38.408;-122.974;2022-11-20T07:50:54;1.10;;;0.30;;
49372;SDS011;44113;38.408;-122.974;2022-11-20T07:53:22;1.63;;;0.30;;
49372;SDS011;44113;38.408;-122.974;2022-11-20T07:55:49;1.42;;;0.30;;
49372;SDS011;44113;38.408;-122.974;2022-11-20T07:58:18;1.25;;;0.30;;
49372;SDS011;44113;38.408;-122.974;2022-11-20T08:00:45;2.88;;;0.30;;
49372;SDS011;44113;38.408;-122.974;2022-11-20T08:03:12;1.58;;;0.30;;
49372;SDS011;44113;38.408;-122.974;2022-11-20T08:05:39;1.50;;;0.28;;
49372;SDS011;44113;38.408;-122.974;2022-11-20T08:08:06;1.00;;;0.25;;
49372;SDS011;44113;38.408;-122.974;2022-11-20T08:10:33;0.70;;;0.30;;
49372;SDS011;44113;38.408;-122.974;2022-11-20T08:13:00;1.48;;;0.30;;
49372;SDS011;44113;38.408;-122.974;2022-11-20T08:15:48;1.95;;;0.30;;
49372;SDS011;44113;38.408;-122.974;2022-11-20T08:20:45;1.48;;;0.20;;
49372;SDS011;44113;38.408;-122.974;2022-11-20T08:23:12;0.70;;;0.20;;
49372;SDS011;44113;38.408;-122.974;2022-11-20T08:25:38;1.77;;;0.20;;
49372;SDS011;44113;38.408;-122.974;2022-11-20T08:28:06;0.70;;;0.30;;
49372;SDS011;44113;38.408;-122.974;2022-11-20T08:30:35;0.70;;;0.20;;
49372;SDS011;44113;38.408;-122.974;2022-11-20T08:33:04;2.88;;;0.40;;
49372;SDS011;44113;38.408;-122.974;2022-11-20T08:35:33;1.77;;;0.30;;
49372;SDS011;44113;38.408;-122.974;2022-11-20T08:38:01;0.80;;;0.20;;
49372;SDS011;44113;38.408;-122.974;2022-11-20T08:40:28;1.45;;;0.40;;
49372;SDS011;44113;38.408;-122.974;2022-11-20T08:42:57;0.68;;;0.30;;
49372;SDS011;44113;38.408;-122.974;2022-11-20T08:45:24;0.68;;;0.20;;
49372;SDS011;44113;38.408;-122.974;2022-11-20T08:47:51;1.77;;;0.20;;
49372;SDS011;44113;38.408;-122.974;2022-11-20T08:50:18;1.77;;;0.30;;
49372;SDS011;44113;38.408;-122.974;2022-11-20T08:52:44;1.95;;;0.20;;
49372;SDS011;44113;38.408;-122.974;2022-11-20T08:55:11;1.17;;;0.40;;
49372;SDS011;44113;38.408;-122.974;2022-11-20T08:57:38;1.58;;;0.20;;
49372;SDS011;44113;38.408;-122.974;2022-11-20T09:00:06;0.40;;;0.20;;
49372;SDS011;44113;38.408;-122.974;2022-11-20T09:02:33;0.68;;;0.20;;
49372;SDS011;44113;38.408;-122.974;2022-11-20T09:04:59;0.85;;;0.40;;
49372;SDS011;44113;38.408;-122.974;2022-11-20T09:07:27;0.40;;;0.20;;
49372;SDS011;44113;38.408;-122.974;2022-11-20T09:09:55;0.65;;;0.20;;
49372;SDS011;44113;38.408;-122.974;2022-11-20T09:12:22;2.25;;;0.75;;
49372;SDS011;44113;38.408;-122.974;2022-11-20T09:14:48;0.60;;;0.20;;
49372;SDS011;44113;38.408;-122.974;2022-11-20T09:17:15;0.60;;;0.40;;
49372;SDS011;44113;38.408;-122.974;2022-11-20T09:19:42;0.43;;;0.20;;
49372;SDS011;44113;38.408;-122.974;2022-11-20T09:22:08;1.90;;;0.20;;
49372;SDS011;44113;38.408;-122.974;2022-11-20T09:24:35;1.05;;;0.20;;
49372;SDS011;44113;38.408;-122.974;2022-11-20T09:27:03;0.88;;;0.20;;
49372;SDS011;44113;38.408;-122.974;2022-11-20T09:29:30;0.75;;;0.20;;
49372;SDS011;44113;38.408;-122.974;2022-11-20T09:31:56;3.92;;;0.55;;
49372;SDS011;44113;38.408;-122.974;2022-11-20T09:34:23;1.00;;;0.20;;
49372;SDS011;44113;38.408;-122.974;2022-11-20T09:36:51;0.77;;;0.10;;
49372;SDS011;44113;38.408;-122.974;2022-11-20T09:39:18;0.50;;;0.20;;
49372;SDS011;44113;38.408;-122.974;2022-11-20T09:44:27;0.60;;;0.20;;
49372;SDS011;44113;38.408;-122.974;2022-11-20T09:47:28;0.75;;;0.20;;
49372;SDS011;44113;38.408;-122.974;2022-11-20T09:50:29;0.70;;;0.20;;
49372;SDS011;44113;38.408;-122.974;2022-11-20T09:53:20;0.47;;;0.20;;
49372;SDS011;44113;38.408;-122.974;2022-11-20T09:56:07;0.57;;;0.20;;
49372;SDS011;44113;38.408;-122.974;2022-11-20T09:58:46;0.77;;;0.20;;
49372;SDS011;44113;38.408;-122.974;2022-11-20T10:06:30;2.92;;;0.20;;
49372;SDS011;44113;38.408;-122.974;2022-11-20T10:09:03;1.30;;;0.60;;
49372;SDS011;44113;38.408;-122.974;2022-11-20T10:11:59;0.77;;;0.35;;
49372;SDS011;44113;38.408;-122.974;2022-11-20T10:15:05;2.97;;;0.32;;
49372;SDS011;44113;38.408;-122.974;2022-11-20T10:29:27;0.43;;;0.20;;
49372;SDS011;44113;38.408;-122.974;2022-11-20T10:32:02;0.73;;;0.20;;
49372;SDS011;44113;38.408;-122.974;2022-11-20T10:34:44;2.00;;;0.30;;
49372;SDS011;44113;38.408;-122.974;2022-11-20T10:37:21;1.10;;;0.20;;
49372;SDS011;44113;38.408;-122.974;2022-11-20T10:45:31;0.77;;;0.10;;
49372;SDS011;44113;38.408;-122.974;2022-11-20T10:50:33;1.33;;;0.28;;
49372;SDS011;44113;38.408;-122.974;2022-11-20T10:53:18;1.30;;;0.60;;
49372;SDS011;44113;38.408;-122.974;2022-11-20T11:01:27;0.90;;;0.20;;
49372;SDS011;44113;38.408;-122.974;2022-11-20T11:03:55;1.20;;;0.20;;
49372;SDS011;44113;38.408;-122.974;2022-11-20T11:09:11;3.15;;;0.30;;
49372;SDS011;44113;38.408;-122.974;2022-11-20T11:11:44;1.35;;;0.38;;
49372;SDS011;44113;38.408;-122.974;2022-11-20T11:14:12;1.05;;;0.20;;
49372;SDS011;44113;38.408;-122.974;2022-11-20T11:16:50;0.80;;;0.30;;
49372;SDS011;44113;38.408;-122.974;2022-11-20T11:19:18;1.17;;;0.20;;
49372;SDS011;44113;38.408;-122.974;2022-11-20T11:21:46;3.67;;;0.30;;
49372;SDS011;44113;38.408;-122.974;2022-11-20T11:24:23;0.98;;;0.30;;
49372;SDS011;44113;38.408;-122.974;2022-11-20T11:26:52;0.80;;;0.20;;
49372;SDS011;44113;38.408;-122.974;2022-11-20T11:29:23;0.80;;;0.30;;
49372;SDS011;44113;38.408;-122.974;2022-11-20T11:32:07;0.63;;;0.20;;
49372;SDS011;44113;38.408;-122.974;2022-11-20T11:34:37;0.85;;;0.40;;
49372;SDS011;44113;38.408;-122.974;2022-11-20T11:37:04;2.08;;;0.20;;
49372;SDS011;44113;38.408;-122.974;2022-11-20T11:39:36;0.50;;;0.20;;
49372;SDS011;44113;38.408;-122.974;2022-11-20T11:42:07;0.98;;;0.20;;
49372;SDS011;44113;38.408;-122.974;2022-11-20T11:44:43;0.77;;;0.22;;
49372;SDS011;44113;38.408;-122.974;2022-11-20T11:58:17;0.68;;;0.20;;
49372;SDS011;44113;38.408;-122.974;2022-11-20T12:01:02;1.00;;;0.20;;
49372;SDS011;44113;38.408;-122.974;2022-11-20T12:03:39;0.40;;;0.20;;
49372;SDS011;44113;38.408;-122.974;2022-11-20T12:06:13;2.83;;;0.20;;
49372;SDS011;44113;38.408;-122.974;2022-11-20T12:14:00;0.52;;;0.20;;
49372;SDS011;44113;38.408;-122.974;2022-11-20T12:16:34;1.77;;;0.20;;
49372;SDS011;44113;38.408;-122.974;2022-11-20T12:19:04;7.28;;;0.20;;
49372;SDS011;44113;38.408;-122.974;2022-11-20T12:21:50;0.50;;;0.20;;
49372;SDS011;44113;38.408;-122.974;2022-11-20T12:30:18;1.00;;;0.20;;
49372;SDS011;44113;38.408;-122.974;2022-11-20T12:40:54;0.90;;;0.20;;
49372;SDS011;44113;38.408;-122.974;2022-11-20T12:44:26;0.50;;;0.22;;
49372;SDS011;44113;38.408;-122.974;2022-11-20T12:47:43;0.35;;;0.20;;
49372;SDS011;44113;38.408;-122.974;2022-11-20T12:52:52;0.40;;;0.20;;
49372;SDS011;44113;38.408;-122.974;2022-11-20T13:07:03;0.50;;;0.20;;
49372;SDS011;44113;38.408;-122.974;2022-11-20T13:09:33;0.68;;;0.20;;
49372;SDS011;44113;38.408;-122.974;2022-11-20T13:12:08;3.90;;;0.40;;
49372;SDS011;44113;38.408;-122.974;2022-11-20T13:17:38;0.43;;;0.20;;
49372;SDS011;44113;38.408;-122.974;2022-11-20T13:20:12;0.40;;;0.20;;
49372;SDS011;44113;38.408;-122.974;2022-11-20T13:22:42;0.60;;;0.20;;
49372;SDS011;44113;38.408;-122.974;2022-11-20T13:25:10;0.75;;;0.45;;
49372;SDS011;44113;38.408;-122.974;2022-11-20T13:28:00;0.50;;;0.20;;
49372;SDS011;44113;38.408;-122.974;2022-11-20T13:30:37;0.68;;;0.20;;
49372;SDS011;44113;38.408;-122.974;2022-11-20T13:35:58;0.32;;;0.10;;
49372;SDS011;44113;38.408;-122.974;2022-11-20T13:38:27;0.38;;;0.20;;
49372;SDS011;44113;38.408;-122.974;2022-11-20T13:43:46;0.80;;;0.15;;
49372;SDS011;44113;38.408;-122.974;2022-11-20T13:46:14;1.35;;;0.40;;
49372;SDS011;44113;38.408;-122.974;2022-11-20T13:48:41;0.65;;;0.20;;
49372;SDS011;44113;38.408;-122.974;2022-11-20T13:51:34;0.80;;;0.20;;
49372;SDS011;44113;38.408;-122.974;2022-11-20T13:56:59;0.93;;;0.20;;
49372;SDS011;44113;38.408;-122.974;2022-11-20T14:02:22;0.77;;;0.20;;
49372;SDS011;44113;38.408;-122.974;2022-11-20T14:04:54;0.30;;;0.15;;
49372;SDS011;44113;38.408;-122.974;2022-11-20T14:07:31;0.40;;;0.20;;
49372;SDS011;44113;38.408;-122.974;2022-11-20T14:10:22;0.55;;;0.13;;
49372;SDS011;44113;38.408;-122.974;2022-11-20T14:12:53;0.55;;;0.17;;
49372;SDS011;44113;38.408;-122.974;2022-11-20T14:15:31;0.50;;;0.20;;
49372;SDS011;44113;38.408;-122.974;2022-11-20T14:17:59;0.43;;;0.20;;
49372;SDS011;44113;38.408;-122.974;2022-11-20T14:20:37;0.45;;;0.20;;
49372;SDS011;44113;38.408;-122.974;2022-11-20T14:23:04;0.52;;;0.20;;
49372;SDS011;44113;38.408;-122.974;2022-11-20T14:25:36;0.50;;;0.17;;
49372;SDS011;44113;38.408;-122.974;2022-11-20T14:28:02;0.63;;;0.20;;
49372;SDS011;44113;38.408;-122.974;2022-11-20T14:31:08;0.40;;;0.17;;
49372;SDS011;44113;38.408;-122.974;2022-11-20T14:33:25;1.70;;;0.20;;
49372;SDS011;44113;38.408;-122.974;2022-11-20T14:35:54;1.20;;;0.20;;
49372;SDS011;44113;38.408;-122.974;2022-11-20T14:38:24;0.45;;;0.13;;
49372;SDS011;44113;38.408;-122.974;2022-11-20T14:40:53;0.45;;;0.20;;
49372;SDS011;44113;38.408;-122.974;2022-11-20T14:43:26;0.47;;;0.20;;
49372;SDS011;44113;38.408;-122.974;2022-11-20T14:46:01;0.60;;;0.20;;
49372;SDS011;44113;38.408;-122.974;2022-11-20T14:48:46;1.75;;;0.55;;
49372;SDS011;44113;38.408;-122.974;2022-11-20T14:51:29;1.25;;;0.65;;
49372;SDS011;44113;38.408;-122.974;2022-11-20T14:54:30;0.60;;;0.20;;
49372;SDS011;44113;38.408;-122.974;2022-11-20T14:57:00;0.45;;;0.30;;
49372;SDS011;44113;38.408;-122.974;2022-11-20T14:59:29;0.88;;;0.20;;
49372;SDS011;44113;38.408;-122.974;2022-11-20T15:02:07;0.38;;;0.15;;
49372;SDS011;44113;38.408;-122.974;2022-11-20T15:04:56;0.57;;;0.20;;
49372;SDS011;44113;38.408;-122.974;2022-11-20T15:07:25;0.30;;;0.20;;
49372;SDS011;44113;38.408;-122.974;2022-11-20T15:10:10;0.40;;;0.10;;
49372;SDS011;44113;38.408;-122.974;2022-11-20T15:15:09;0.30;;;0.10;;
49372;SDS011;44113;38.408;-122.974;2022-11-20T15:17:42;0.47;;;0.20;;
49372;SDS011;44113;38.408;-122.974;2022-11-20T15:20:10;0.40;;;0.10;;
49372;SDS011;44113;38.408;-122.974;2022-11-20T15:22:39;0.50;;;0.20;;
49372;SDS011;44113;38.408;-122.974;2022-11-20T15:25:16;0.40;;;0.20;;
49372;SDS011;44113;38.408;-122.974;2022-11-20T15:27:44;0.30;;;0.17;;
49372;SDS011;44113;38.408;-122.974;2022-11-20T15:30:15;0.35;;;0.17;;
49372;SDS011;44113;38.408;-122.974;2022-11-20T15:32:44;0.40;;;0.20;;
49372;SDS011;44113;38.408;-122.974;2022-11-20T15:35:13;1.42;;;0.20;;
49372;SDS011;44113;38.408;-122.974;2022-11-20T15:37:40;1.42;;;0.20;;
49372;SDS011;44113;38.408;-122.974;2022-11-20T15:40:08;0.32;;;0.15;;
49372;SDS011;44113;38.408;-122.974;2022-11-20T15:42:35;0.40;;;0.10;;
49372;SDS011;44113;38.408;-122.974;2022-11-20T15:45:02;0.38;;;0.25;;
49372;SDS011;44113;38.408;-122.974;2022-11-20T15:47:33;0.35;;;0.10;;
49372;SDS011;44113;38.408;-122.974;2022-11-20T15:50:00;0.40;;;0.20;;
49372;SDS011;44113;38.408;-122.974;2022-11-20T15:52:27;0.55;;;0.20;;
49372;SDS011;44113;38.408;-122.974;2022-11-20T15:54:53;0.40;;;0.20;;
49372;SDS011;44113;38.408;-122.974;2022-11-20T15:57:20;0.38;;;0.10;;
49372;SDS011;44113;38.408;-122.974;2022-11-20T15:59:46;0.73;;;0.20;;
49372;SDS011;44113;38.408;-122.974;2022-11-20T16:02:14;0.50;;;0.30;;
49372;SDS011;44113;38.408;-122.974;2022-11-20T16:04:42;0.13;;;0.10;;
49372;SDS011;44113;38.408;-122.974;2022-11-20T16:07:09;0.20;;;0.10;;
49372;SDS011;44113;38.408;-122.974;2022-11-20T16:09:36;0.20;;;0.10;;
49372;SDS011;44113;38.408;-122.974;2022-11-20T16:12:03;0.40;;;0.20;;
49372;SDS011;44113;38.408;-122.974;2022-11-20T16:14:29;0.32;;;0.20;;
49372;SDS011;44113;38.408;-122.974;2022-11-20T16:17:15;0.50;;;0.20;;